Dalzell, IL (61320)

8:33 AM CST on December 18, 2014 (GMT -0600)
Baker Lake | Change Station
CLOSE
Current Station
Personal Weather Station
Location: Peru, IL
Elevation: 652 ft
Nearby Weather Stations

Elev 652 ft 41.34 °N, 89.11 °W | Updated 3 minutes ago

Clear
Clear
22.0 °F
Feels Like 22 °F
N
0.0
Wind Variable Wind from NNW
Gusts 0.0 mph

Today
High -- | Low -- °F
--% Chance of Precip.
Yesterday
High -- | Low -- °F
Precip. -- in
7:17 AM 4:29 PM
Waning Crescent, 14% visible
Pressure 30.32 in
Visibility 7.0 miles
Clouds Clear
Windchill 22 °F
Dew Point 20 °F
Humidity 91%
Rainfall 0.00 in
Snow Depth Not available.
UV 0 out of 12
Pollen .10 out of 12
Air Quality Not available.
Flu Activity Not available.
METAR KVYS 181415Z AUTO 00000KT 7SM CLR M06/M07 A3032 RMK AO2 T10561070

More Conditions Fewer Conditions

Pressure 30.32 in
Visibility 7.0 miles
Clouds Clear
Windchill 22 °F
Dew Point 20 °F
Humidity 91%
Rainfall 0.00 in
Snow Depth Not available.
UV 0 out of 12
Pollen .10 out of 12
Air Quality Not available.
Flu Activity Not available.
METAR KVYS 181415Z AUTO 00000KT 7SM CLR M06/M07 A3032 RMK AO2 T10561070

More Conditions Fewer Conditions

10-Day Weather Forecast

Almanac

Astronomy

Dec. 18, 2014 Rise Set
Actual Time
Civil Twilight
Nautical Twilight
Astronomical Twilight
Moon
Length of Visible Light
Length of Day
Tomorrow will be .
, % of the Moon is Illuminated

Today's Extremes

State Highs State Lows

Community

WunderPhotos

Upload Photos

1,778,929 photos uploaded!

WunderBlogs® & News

Nearby

Air Quality

  Air Quality AQ Index Pollutant
Not available.

Snow Depth

Station Depth Elevation

Earthquake Activity

City Distance Mag. Time & Date
Minimum magnitude displayed is 2.5.

Coastal Water Temperatures

Place Temperature

Nearby Weather Stations